KCVS

Cannon AFB Airport

Clovis, New Mexico, USA
METAR KCVS 151258Z 31006KT 10SM CLR M05/M05 A3030 RMK AO2A SLP279 T10471047 $
Observed Flight Rules
Dec-15 @ 12:58 UTC (43 minutes ago) Visual Flight Rules
Wind Visibility Clouds
310° at 6 knots 10 miles
  • Clear skies
Temperatures Readings
Current -5°C / 23°F
Dewpoint -5°C / 23°F
Humidity 100%
Altimeter 30.3" Hg
Pressure 1027.9 hPa
Elevation 1309
METAR KCVS 151258Z 31006KT 10SM CLR M05/M05 A3030 RMK AO2A SLP279 T10471047 $
Observed Flight Rules
Dec-15 @ 12:58 UTC
(43 minutes ago)
VFR
Wind Visibility
310° at 6 knots 10 miles
Clouds
  • Clear skies
Temperature Dewpoint
-5°C / 23°F -5°C / 23°F
Humidity Altimeter Pressure
100% 30.3" Hg 1027.9 hPa